createdAt,value
2022-11-14T00:00:52.400Z,16.55
2022-11-14T00:03:18.765Z,15.35
2022-11-14T00:05:46.218Z,15.30
2022-11-14T00:08:17.100Z,16.17
2022-11-14T00:10:47.753Z,15.77
2022-11-14T00:13:14.902Z,14.50
2022-11-14T00:15:41.497Z,14.23
2022-11-14T00:18:08.176Z,14.52
2022-11-14T00:20:34.491Z,13.70
2022-11-14T00:23:00.892Z,13.95
2022-11-14T00:25:27.393Z,13.63
2022-11-14T00:27:57.514Z,12.27
2022-11-14T00:30:24.081Z,12.38
2022-11-14T00:32:50.483Z,12.88
2022-11-14T00:35:17.021Z,13.68
2022-11-14T00:37:43.479Z,14.15
2022-11-14T00:40:10.057Z,12.90
2022-11-14T00:42:36.495Z,13.32
2022-11-14T00:45:03.204Z,13.75
2022-11-14T00:47:29.554Z,13.23
2022-11-14T00:49:55.896Z,13.93
2022-11-14T00:52:22.232Z,12.48
2022-11-14T00:54:48.619Z,13.57
2022-11-14T00:57:14.942Z,13.05
2022-11-14T00:59:41.304Z,13.07
2022-11-14T01:02:07.661Z,12.63
2022-11-14T01:04:34.296Z,12.27
2022-11-14T01:07:00.718Z,13.52
2022-11-14T01:09:27.180Z,12.93
2022-11-14T01:11:53.632Z,12.77
2022-11-14T01:14:20.040Z,14.07
2022-11-14T01:16:46.382Z,13.10
2022-11-14T01:19:12.729Z,15.02
2022-11-14T01:21:39.150Z,15.82
2022-11-14T01:24:06.078Z,16.05
2022-11-14T01:26:32.410Z,19.60
2022-11-14T01:28:58.982Z,19.85
2022-11-14T01:31:26.125Z,20.35
2022-11-14T01:33:53.784Z,21.13
2022-11-14T01:36:20.728Z,20.77
2022-11-14T01:38:47.136Z,19.60
2022-11-14T01:41:15.735Z,19.85
2022-11-14T01:43:43.163Z,20.88
2022-11-14T01:46:25.765Z,20.52
2022-11-14T01:48:54.217Z,19.63
2022-11-14T01:51:32.503Z,21.45
2022-11-14T01:54:02.399Z,20.75
2022-11-14T01:56:46.550Z,20.48
2022-11-14T01:59:18.025Z,20.15
2022-11-14T02:01:48.069Z,20.35
2022-11-14T02:04:27.249Z,19.90
2022-11-14T02:06:57.258Z,19.83
2022-11-14T02:09:24.109Z,19.83
2022-11-14T02:11:51.997Z,19.35
2022-11-14T02:14:18.303Z,20.63
2022-11-14T02:16:55.646Z,21.80
2022-11-14T02:19:52.306Z,21.27
2022-11-14T02:22:19.091Z,20.75
2022-11-14T02:24:46.073Z,21.10
2022-11-14T02:27:14.364Z,20.17
2022-11-14T02:29:40.879Z,20.08
2022-11-14T02:32:10.626Z,19.98
2022-11-14T02:34:37.942Z,20.35
2022-11-14T02:37:04.396Z,20.50
2022-11-14T02:39:30.799Z,21.58
2022-11-14T02:41:57.203Z,20.40
2022-11-14T02:44:23.730Z,21.05
2022-11-14T02:46:50.162Z,20.35
2022-11-14T02:49:16.532Z,21.30
2022-11-14T02:51:43.112Z,19.80
2022-11-14T02:54:09.480Z,19.98
2022-11-14T02:56:35.869Z,19.90
2022-11-14T02:59:02.184Z,20.55
2022-11-14T03:01:28.623Z,20.00
2022-11-14T03:03:55.076Z,19.67
2022-11-14T03:06:21.434Z,21.90
2022-11-14T03:08:47.740Z,19.55
2022-11-14T03:11:14.116Z,19.88
2022-11-14T03:13:40.533Z,19.65
2022-11-14T03:16:08.829Z,20.13
2022-11-14T03:18:35.833Z,19.23
2022-11-14T03:21:11.765Z,19.83
2022-11-14T03:23:38.184Z,19.38
2022-11-14T03:26:07.495Z,19.42
2022-11-14T03:28:34.340Z,20.65
2022-11-14T03:31:00.709Z,19.27
2022-11-14T03:33:27.090Z,20.70
2022-11-14T03:35:53.437Z,20.00
2022-11-14T03:38:23.103Z,21.17
2022-11-14T03:40:50.640Z,20.48
2022-11-14T03:43:17.744Z,20.15
2022-11-14T03:45:44.740Z,20.95
2022-11-14T03:48:11.562Z,20.83
2022-11-14T03:50:37.963Z,21.20
2022-11-14T03:53:04.558Z,21.48
2022-11-14T03:55:30.977Z,20.40
2022-11-14T03:57:57.328Z,21.33
2022-11-14T04:00:23.728Z,22.23
2022-11-14T04:02:50.084Z,22.27
2022-11-14T04:05:16.531Z,21.10
2022-11-14T04:07:42.867Z,20.58
2022-11-14T04:10:09.309Z,20.95
2022-11-14T04:12:35.624Z,21.48
2022-11-14T04:15:01.988Z,20.17
2022-11-14T04:17:28.352Z,20.45
2022-11-14T04:19:54.690Z,21.02
2022-11-14T04:22:21.100Z,22.08
2022-11-14T04:24:47.549Z,19.92
2022-11-14T04:27:13.911Z,20.50
2022-11-14T04:29:40.241Z,21.20
2022-11-14T04:32:06.608Z,22.50
2022-11-14T04:34:33.096Z,21.08
2022-11-14T04:36:59.490Z,20.85
2022-11-14T04:39:25.936Z,21.75
2022-11-14T04:41:52.282Z,22.13
2022-11-14T04:44:18.626Z,21.33
2022-11-14T04:46:45.027Z,21.65
2022-11-14T04:49:11.355Z,21.20
2022-11-14T04:51:37.695Z,21.83
2022-11-14T04:54:04.144Z,22.65
2022-11-14T04:56:30.537Z,21.77
2022-11-14T04:58:56.972Z,20.00
2022-11-14T05:01:23.363Z,20.00
2022-11-14T05:03:49.741Z,23.77
2022-11-14T05:06:16.247Z,21.35
2022-11-14T05:08:42.765Z,22.95
2022-11-14T05:11:14.650Z,23.27
2022-11-14T05:13:41.085Z,22.30
2022-11-14T05:16:07.618Z,22.83
2022-11-14T05:18:34.035Z,23.25
2022-11-14T05:21:01.136Z,23.08
2022-11-14T05:23:27.792Z,23.02
2022-11-14T05:26:05.716Z,21.67
2022-11-14T05:28:32.791Z,22.38
2022-11-14T05:31:04.470Z,22.98
2022-11-14T05:33:31.297Z,22.75
2022-11-14T05:36:09.145Z,24.58
2022-11-14T05:38:35.790Z,23.58
2022-11-14T05:41:13.696Z,23.05
2022-11-14T05:43:40.836Z,24.00
2022-11-14T05:46:11.021Z,22.48
2022-11-14T05:48:38.201Z,24.13
2022-11-14T05:51:06.814Z,25.25
2022-11-14T05:53:34.200Z,23.83
2022-11-14T05:56:06.514Z,24.30
2022-11-14T05:58:34.130Z,25.17
2022-11-14T06:01:08.818Z,24.50
2022-11-14T06:03:38.372Z,22.40
2022-11-14T06:06:07.162Z,23.13
2022-11-14T06:08:34.471Z,23.05
2022-11-14T06:11:06.378Z,23.90
2022-11-14T06:13:33.537Z,24.80
2022-11-14T06:16:05.027Z,23.58
2022-11-14T06:18:32.852Z,24.38
2022-11-14T06:21:08.167Z,24.23
2022-11-14T06:23:34.699Z,25.50
2022-11-14T06:26:02.901Z,24.67
2022-11-14T06:28:30.115Z,24.40
2022-11-14T06:31:00.943Z,25.15
2022-11-14T06:33:28.536Z,24.80
2022-11-14T06:35:59.389Z,24.80
2022-11-14T06:38:26.211Z,22.88
2022-11-14T06:40:52.801Z,24.63
2022-11-14T06:43:19.109Z,24.25
2022-11-14T06:45:45.520Z,24.20
2022-11-14T06:48:11.853Z,23.38
2022-11-14T06:50:38.210Z,23.88
2022-11-14T06:53:04.528Z,23.95
2022-11-14T06:55:30.953Z,22.75
2022-11-14T06:57:57.276Z,22.33
2022-11-14T07:00:23.747Z,21.98
2022-11-14T07:02:50.187Z,26.33
2022-11-14T07:05:16.590Z,26.42
2022-11-14T07:07:42.892Z,24.80
2022-11-14T07:10:09.744Z,24.38
2022-11-14T07:12:36.099Z,24.88
2022-11-14T07:15:02.416Z,25.33
2022-11-14T07:17:31.441Z,24.75
2022-11-14T07:19:58.030Z,22.92
2022-11-14T07:22:24.372Z,25.42
2022-11-14T07:24:50.707Z,24.92
2022-11-14T07:27:17.032Z,23.75
2022-11-14T07:29:43.347Z,23.02
2022-11-14T07:32:09.641Z,23.55
2022-11-14T07:34:35.949Z,24.20
2022-11-14T07:37:02.443Z,24.70
2022-11-14T07:39:28.977Z,25.55
2022-11-14T07:41:55.284Z,29.02
2022-11-14T07:44:21.608Z,26.02
2022-11-14T07:46:49.993Z,26.83
2022-11-14T07:49:17.009Z,25.48
2022-11-14T07:51:43.360Z,26.02
2022-11-14T07:54:11.920Z,25.95
2022-11-14T07:56:38.740Z,26.50
2022-11-14T07:59:05.120Z,26.50
2022-11-14T08:01:31.553Z,27.00
2022-11-14T08:03:57.938Z,27.67
2022-11-14T08:06:24.283Z,28.05
2022-11-14T08:08:50.636Z,29.25
2022-11-14T08:11:36.902Z,30.42
2022-11-14T08:14:03.301Z,28.83
2022-11-14T08:16:29.613Z,33.30
2022-11-14T08:18:55.958Z,35.40
2022-11-14T08:21:22.414Z,37.38
2022-11-14T08:23:48.812Z,32.40
2022-11-14T08:26:15.158Z,31.75
2022-11-14T08:28:41.657Z,30.30
2022-11-14T08:31:10.123Z,28.83
2022-11-14T08:33:36.469Z,29.17
2022-11-14T08:36:03.694Z,27.48
2022-11-14T08:38:31.988Z,27.10
2022-11-14T08:40:59.489Z,27.15
2022-11-14T08:43:26.339Z,28.33
2022-11-14T08:45:52.724Z,29.08
2022-11-14T08:48:19.114Z,31.67
2022-11-14T08:50:45.585Z,29.67
2022-11-14T08:53:11.928Z,28.70
2022-11-14T08:55:43.961Z,30.75
2022-11-14T08:58:10.286Z,29.88
2022-11-14T09:00:36.633Z,29.67
2022-11-14T09:03:08.632Z,30.42
2022-11-14T09:05:36.366Z,30.90
2022-11-14T09:08:03.902Z,31.35
2022-11-14T09:10:30.340Z,30.50
2022-11-14T09:13:00.756Z,30.77
2022-11-14T09:15:28.999Z,31.58
2022-11-14T09:17:56.674Z,30.63
2022-11-14T09:20:29.816Z,30.85
2022-11-14T09:23:00.025Z,30.20
2022-11-14T09:25:26.504Z,31.30
2022-11-14T09:27:53.403Z,32.17
2022-11-14T09:30:19.899Z,33.22
2022-11-14T09:32:46.333Z,30.38
2022-11-14T09:35:12.814Z,33.42
2022-11-14T09:37:39.669Z,34.22
2022-11-14T09:40:07.209Z,33.53
2022-11-14T09:43:03.366Z,32.65
2022-11-14T09:45:30.252Z,32.60
2022-11-14T09:48:06.705Z,33.33
2022-11-14T09:50:37.033Z,33.83
2022-11-14T09:53:10.356Z,34.78
2022-11-14T09:55:37.573Z,35.03
2022-11-14T09:58:05.251Z,33.17
2022-11-14T10:01:04.969Z,34.65
2022-11-14T10:04:09.350Z,34.92
2022-11-14T10:06:53.001Z,34.50
2022-11-14T10:09:58.094Z,34.22
2022-11-14T10:12:43.164Z,34.58
2022-11-14T10:15:23.945Z,35.75
2022-11-14T10:18:05.291Z,35.90
2022-11-14T10:20:44.697Z,34.53
2022-11-14T10:23:23.147Z,32.97
2022-11-14T10:26:16.126Z,30.73
2022-11-14T10:29:33.240Z,30.38
2022-11-14T10:32:18.877Z,29.63
2022-11-14T10:35:01.527Z,28.00
2022-11-14T10:37:42.296Z,27.05
2022-11-14T10:40:40.997Z,26.75
2022-11-14T10:43:18.712Z,27.60
2022-11-14T10:45:50.724Z,27.92
2022-11-14T10:48:31.533Z,26.95
2022-11-14T10:51:02.591Z,25.55
2022-11-14T10:53:47.165Z,24.92
2022-11-14T10:58:48.441Z,28.45
2022-11-14T11:01:39.696Z,25.58
2022-11-14T11:04:14.889Z,24.20
2022-11-14T11:06:41.412Z,24.70
2022-11-14T11:09:31.383Z,26.38
2022-11-14T11:12:01.672Z,24.65
2022-11-14T11:14:29.460Z,23.73
2022-11-14T11:17:15.559Z,24.33
2022-11-14T11:19:42.870Z,25.55
2022-11-14T11:22:35.090Z,24.52
2022-11-14T11:25:01.490Z,24.58
2022-11-14T11:27:29.367Z,22.38
2022-11-14T11:30:04.135Z,23.55
2022-11-14T11:32:30.688Z,22.10
2022-11-14T11:35:00.094Z,23.25
2022-11-14T11:37:35.511Z,24.23
2022-11-14T11:40:06.600Z,22.60
2022-11-14T11:43:31.677Z,23.42
2022-11-14T11:45:34.605Z,23.33
2022-11-14T11:48:08.945Z,22.67
2022-11-14T11:53:22.123Z,24.65
2022-11-14T11:55:53.248Z,22.63
2022-11-14T11:58:27.623Z,21.02
2022-11-14T12:00:57.820Z,22.33
2022-11-14T12:03:25.975Z,22.83
2022-11-14T12:05:52.334Z,23.15
2022-11-14T12:08:30.912Z,21.05
2022-11-14T12:10:59.095Z,25.20
2022-11-14T12:13:46.064Z,25.35
2022-11-14T12:16:36.610Z,24.73
2022-11-14T12:19:32.232Z,23.55
2022-11-14T12:22:29.998Z,24.08
2022-11-14T12:25:17.115Z,24.23
2022-11-14T12:28:09.865Z,23.08
2022-11-14T12:30:39.334Z,23.50
2022-11-14T12:33:16.147Z,24.23
2022-11-14T12:35:52.387Z,24.27
2022-11-14T12:38:21.054Z,23.00
2022-11-14T12:40:54.206Z,23.70
2022-11-14T12:43:37.826Z,26.00
2022-11-14T12:46:11.368Z,23.30
2022-11-14T12:48:38.930Z,18.93
2022-11-14T12:51:25.219Z,27.30
2022-11-14T12:53:52.650Z,25.25
2022-11-14T12:56:31.287Z,21.38
2022-11-14T12:59:13.350Z,20.75
2022-11-14T13:01:51.971Z,20.83
2022-11-14T13:04:42.963Z,21.98
2022-11-14T13:07:33.895Z,22.00
2022-11-14T13:10:14.638Z,22.25
2022-11-14T13:13:01.658Z,23.10
2022-11-14T13:15:49.411Z,23.40
2022-11-14T13:18:45.050Z,23.02
2022-11-14T13:21:45.614Z,23.67
2022-11-14T13:24:21.461Z,21.50
2022-11-14T13:26:50.597Z,22.23
2022-11-14T13:29:40.955Z,22.35
2022-11-14T13:32:11.805Z,22.25
2022-11-14T13:34:58.327Z,21.65
2022-11-14T13:37:42.273Z,22.67
2022-11-14T13:40:35.378Z,22.33
2022-11-14T13:43:12.697Z,21.90
2022-11-14T13:46:06.855Z,21.42
2022-11-14T13:49:03.001Z,24.15
2022-11-14T13:51:46.423Z,22.40
2022-11-14T13:54:17.845Z,21.77
2022-11-14T13:57:00.893Z,23.27
2022-11-14T13:59:48.180Z,21.90
2022-11-14T14:02:40.451Z,22.35
2022-11-14T14:05:30.041Z,22.20
2022-11-14T14:08:01.493Z,21.52
2022-11-14T14:10:59.326Z,22.85
2022-11-14T14:13:49.827Z,24.40
2022-11-14T14:16:41.650Z,24.52
2022-11-14T14:19:24.505Z,26.80
2022-11-14T14:22:07.233Z,25.95
2022-11-14T14:24:59.479Z,26.92
2022-11-14T14:28:05.118Z,25.52
2022-11-14T14:30:31.492Z,26.02
2022-11-14T14:33:07.032Z,27.25
2022-11-14T14:35:40.223Z,25.17
2022-11-14T14:38:13.206Z,27.67
2022-11-14T14:40:41.869Z,26.83
2022-11-14T14:43:22.123Z,28.02
2022-11-14T14:45:53.079Z,26.48
2022-11-14T14:48:25.085Z,27.42
2022-11-14T14:50:56.534Z,27.63
2022-11-14T14:53:25.637Z,26.88
2022-11-14T14:56:04.278Z,27.02
2022-11-14T14:58:33.479Z,29.38
2022-11-14T15:01:04.927Z,26.30
2022-11-14T15:03:40.446Z,26.30
2022-11-14T15:06:32.900Z,26.42
2022-11-14T15:09:08.124Z,27.75
2022-11-14T15:11:39.786Z,27.40
2022-11-14T15:14:06.782Z,28.80
2022-11-14T15:16:33.546Z,27.90
2022-11-14T15:19:00.660Z,26.63
2022-11-14T15:21:28.871Z,27.40
2022-11-14T15:24:10.642Z,26.42
2022-11-14T15:26:37.049Z,26.60
2022-11-14T15:29:16.577Z,28.80
2022-11-14T15:31:52.740Z,29.30
2022-11-14T15:34:26.592Z,27.50
2022-11-14T15:37:25.984Z,27.85
2022-11-14T15:39:52.442Z,27.80
2022-11-14T15:42:18.766Z,26.83
2022-11-14T15:44:46.811Z,26.70
2022-11-14T15:47:19.752Z,29.45
2022-11-14T15:50:01.010Z,38.38
2022-11-14T15:52:33.297Z,29.38
2022-11-14T15:54:59.877Z,27.55
2022-11-14T15:57:26.381Z,30.00
2022-11-14T15:59:52.870Z,28.73
2022-11-14T16:02:22.892Z,27.88
2022-11-14T16:04:51.888Z,26.60
2022-11-14T16:07:19.124Z,26.88
2022-11-14T16:09:45.674Z,29.13
2022-11-14T16:12:11.961Z,27.25
2022-11-14T16:14:38.465Z,26.40
2022-11-14T16:17:04.994Z,27.60
2022-11-14T16:19:31.751Z,27.38
2022-11-14T16:22:02.849Z,28.30
2022-11-14T16:24:34.003Z,28.88
2022-11-14T16:27:00.850Z,27.60
2022-11-14T16:29:27.350Z,28.05
2022-11-14T16:31:56.454Z,28.50
2022-11-14T16:34:25.876Z,28.27
2022-11-14T16:37:02.737Z,28.42
2022-11-14T16:39:29.808Z,28.65
2022-11-14T16:42:02.854Z,30.65
2022-11-14T16:44:30.156Z,28.30
2022-11-14T16:46:56.565Z,29.48
2022-11-14T16:49:23.024Z,30.23
2022-11-14T16:51:51.296Z,29.30
2022-11-14T16:54:19.194Z,29.90
2022-11-14T16:56:45.599Z,31.13
2022-11-14T16:59:12.313Z,29.75
2022-11-14T17:01:39.042Z,27.83
2022-11-14T17:04:05.719Z,29.40
2022-11-14T17:06:32.189Z,29.58
2022-11-14T17:08:59.871Z,30.90
2022-11-14T17:11:26.729Z,33.05
2022-11-14T17:13:55.164Z,31.98
2022-11-14T17:16:21.539Z,31.15
2022-11-14T17:18:53.794Z,31.90
2022-11-14T17:21:20.824Z,32.47
2022-11-14T17:23:47.234Z,31.23
2022-11-14T17:26:14.117Z,30.95
2022-11-14T17:28:41.443Z,32.88
2022-11-14T17:31:08.585Z,32.95
2022-11-14T17:33:35.742Z,33.97
2022-11-14T17:36:04.403Z,32.53
2022-11-14T17:38:35.031Z,36.50
2022-11-14T17:41:05.537Z,33.22
2022-11-14T17:43:39.572Z,32.20
2022-11-14T17:46:12.599Z,32.55
2022-11-14T17:48:42.019Z,31.33
2022-11-14T17:51:12.587Z,29.05
2022-11-14T17:53:39.516Z,30.88
2022-11-14T17:56:07.705Z,31.35
2022-11-14T17:58:34.204Z,31.92
2022-11-14T18:01:00.795Z,33.50
2022-11-14T18:03:27.555Z,31.38
2022-11-14T18:06:04.799Z,33.33
2022-11-14T18:08:31.483Z,33.95
2022-11-14T18:11:01.991Z,33.65
2022-11-14T18:13:28.436Z,34.05
2022-11-14T18:15:55.175Z,33.92
2022-11-14T18:18:21.513Z,34.78
2022-11-14T18:20:47.844Z,35.67
2022-11-14T18:23:14.284Z,33.33
2022-11-14T18:25:40.624Z,35.88
2022-11-14T18:28:07.084Z,35.85
2022-11-14T18:30:41.282Z,35.03
2022-11-14T18:33:08.368Z,34.67
2022-11-14T18:35:34.715Z,35.20
2022-11-14T18:38:01.129Z,33.03
2022-11-14T18:40:27.463Z,31.95
2022-11-14T18:42:54.327Z,33.30
2022-11-14T18:45:20.654Z,30.02
2022-11-14T18:47:47.035Z,31.10
2022-11-14T18:50:14.080Z,31.50
2022-11-14T18:52:40.465Z,33.28
2022-11-14T18:55:10.114Z,32.25
2022-11-14T18:57:36.581Z,35.38
2022-11-14T19:00:04.397Z,34.55
2022-11-14T19:02:31.639Z,32.10
2022-11-14T19:04:58.060Z,32.70
2022-11-14T19:07:25.969Z,30.48
2022-11-14T19:09:52.418Z,32.90
2022-11-14T19:12:18.843Z,32.38
2022-11-14T19:14:46.209Z,32.50
2022-11-14T19:17:13.481Z,34.13
2022-11-14T19:19:39.794Z,33.20
2022-11-14T19:22:06.243Z,34.25
2022-11-14T19:24:33.062Z,31.88
2022-11-14T19:26:59.383Z,32.33
2022-11-14T19:29:25.814Z,31.35
2022-11-14T19:31:53.213Z,33.67
2022-11-14T19:34:19.533Z,31.40
2022-11-14T19:36:59.233Z,32.42
2022-11-14T19:39:26.673Z,30.63
2022-11-14T19:41:53.098Z,30.88
2022-11-14T19:44:19.710Z,29.55
2022-11-14T19:46:47.869Z,29.95
2022-11-14T19:49:14.685Z,30.98
2022-11-14T19:51:41.034Z,29.17
2022-11-14T19:54:10.316Z,28.90
2022-11-14T19:56:37.058Z,30.10
2022-11-14T19:59:09.550Z,29.00
2022-11-14T20:01:44.186Z,28.45
2022-11-14T20:04:13.099Z,26.90
2022-11-14T20:06:44.047Z,27.02
2022-11-14T20:09:10.894Z,26.92
2022-11-14T20:11:37.831Z,27.25
2022-11-14T20:14:05.567Z,27.55
2022-11-14T20:16:34.181Z,28.38
2022-11-14T20:19:01.765Z,26.90
2022-11-14T20:21:32.780Z,27.50
2022-11-14T20:23:59.426Z,29.52
2022-11-14T20:26:25.885Z,30.60
2022-11-14T20:28:55.035Z,32.03
2022-11-14T20:31:25.569Z,30.85
2022-11-14T20:33:53.876Z,33.78
2022-11-14T20:36:24.185Z,31.02
2022-11-14T20:38:52.065Z,30.55
2022-11-14T20:41:19.926Z,29.73
2022-11-14T20:43:47.015Z,28.17
2022-11-14T20:46:16.150Z,27.27
2022-11-14T20:48:43.312Z,27.50
2022-11-14T20:51:19.443Z,27.33
2022-11-14T20:53:51.009Z,27.05
2022-11-14T20:56:18.114Z,28.90
2022-11-14T20:58:48.503Z,29.02
2022-11-14T21:01:16.082Z,29.23
2022-11-14T21:03:42.568Z,29.73
2022-11-14T21:06:12.252Z,27.63
2022-11-14T21:08:39.572Z,29.90
2022-11-14T21:11:18.185Z,30.08
2022-11-14T21:13:57.081Z,31.02
2022-11-14T21:16:32.413Z,28.73
2022-11-14T21:18:59.578Z,29.80
2022-11-14T21:21:27.422Z,28.58
2022-11-14T21:23:54.837Z,30.33
2022-11-14T21:26:24.535Z,30.08
2022-11-14T21:28:54.791Z,31.58
2022-11-14T21:31:31.554Z,30.35
2022-11-14T21:33:59.455Z,30.55
2022-11-14T21:36:44.260Z,30.35
2022-11-14T21:39:14.910Z,30.85
2022-11-14T21:41:42.331Z,31.35
2022-11-14T21:44:12.841Z,31.15
2022-11-14T21:46:39.242Z,32.47
2022-11-14T21:49:05.587Z,29.73
2022-11-14T21:51:32.003Z,30.73
2022-11-14T21:53:58.552Z,30.52
2022-11-14T21:56:27.593Z,31.52
2022-11-14T21:59:13.080Z,30.17
2022-11-14T22:02:02.724Z,29.73
2022-11-14T22:04:29.489Z,30.98
2022-11-14T22:06:56.082Z,27.73
2022-11-14T22:09:22.676Z,30.60
2022-11-14T22:11:49.063Z,29.65
2022-11-14T22:14:15.450Z,30.83
2022-11-14T22:16:41.876Z,30.23
2022-11-14T22:19:08.504Z,32.70
2022-11-14T22:21:34.861Z,32.10
2022-11-14T22:24:01.224Z,32.30
2022-11-14T22:26:27.797Z,34.08
2022-11-14T22:28:54.138Z,30.27
2022-11-14T22:31:22.667Z,30.90
2022-11-14T22:33:51.336Z,30.77
2022-11-14T22:36:23.664Z,33.05
2022-11-14T22:38:52.370Z,31.73
2022-11-14T22:41:28.997Z,33.55
2022-11-14T22:43:58.689Z,33.83
2022-11-14T22:46:25.362Z,34.60
2022-11-14T22:48:51.778Z,31.80
2022-11-14T22:51:21.162Z,33.83
2022-11-14T22:53:50.118Z,35.50
2022-11-14T22:56:18.372Z,35.88
2022-11-14T22:58:45.745Z,34.42
2022-11-14T23:01:14.502Z,34.67
2022-11-14T23:03:41.183Z,33.88
2022-11-14T23:06:14.283Z,36.47
2022-11-14T23:08:41.106Z,33.22
2022-11-14T23:11:10.717Z,34.35
2022-11-14T23:13:38.740Z,35.72
2022-11-14T23:16:07.859Z,35.40
2022-11-14T23:18:34.228Z,33.92
2022-11-14T23:21:12.303Z,37.65
2022-11-14T23:23:38.803Z,35.80
2022-11-14T23:26:07.533Z,39.78
2022-11-14T23:28:34.619Z,35.35
2022-11-14T23:31:01.702Z,38.72
2022-11-14T23:33:28.512Z,35.60
2022-11-14T23:35:55.024Z,37.25
2022-11-14T23:38:21.387Z,37.85
2022-11-14T23:40:59.460Z,35.92
2022-11-14T23:43:26.327Z,37.78
2022-11-14T23:45:52.790Z,36.15
2022-11-14T23:48:20.790Z,38.92
2022-11-14T23:50:55.467Z,38.60
2022-11-14T23:53:22.690Z,39.58
2022-11-14T23:55:57.269Z,39.67
2022-11-14T23:58:25.132Z,37.30
